sensor_id;sensor_type;location;lat;lon;timestamp;temperature;humidity
16674;DHT22;8450;52.654;10.326;2023-05-23T12:24:35;11.90;99.90
16674;DHT22;8450;52.654;10.326;2023-05-23T12:27:09;11.90;99.90
16674;DHT22;8450;52.654;10.326;2023-05-23T12:29:35;12.00;99.90
16674;DHT22;8450;52.654;10.326;2023-05-23T12:32:04;12.10;99.90
16674;DHT22;8450;52.654;10.326;2023-05-23T12:34:30;12.20;99.90
16674;DHT22;8450;52.654;10.326;2023-05-23T12:36:58;12.30;99.90
16674;DHT22;8450;52.654;10.326;2023-05-23T12:39:24;12.40;99.90
16674;DHT22;8450;52.654;10.326;2023-05-23T12:41:54;12.50;99.90
16674;DHT22;8450;52.654;10.326;2023-05-23T12:44:23;13.10;99.90
16674;DHT22;8450;52.654;10.326;2023-05-23T12:46:54;13.40;99.90
16674;DHT22;8450;52.654;10.326;2023-05-23T12:49:19;13.40;99.90
16674;DHT22;8450;52.654;10.326;2023-05-23T12:51:46;13.40;99.90
16674;DHT22;8450;52.654;10.326;2023-05-23T12:54:11;13.40;99.90
16674;DHT22;8450;52.654;10.326;2023-05-23T12:56:37;13.30;99.90
16674;DHT22;8450;52.654;10.326;2023-05-23T12:59:03;13.40;99.90
16674;DHT22;8450;52.654;10.326;2023-05-23T13:01:29;13.40;99.90
16674;DHT22;8450;52.654;10.326;2023-05-23T13:03:54;14.10;99.90
16674;DHT22;8450;52.654;10.326;2023-05-23T13:06:20;14.20;99.90
16674;DHT22;8450;52.654;10.326;2023-05-23T13:08:46;13.70;99.90
16674;DHT22;8450;52.654;10.326;2023-05-23T13:11:13;13.60;99.90
16674;DHT22;8450;52.654;10.326;2023-05-23T13:13:38;13.60;99.90
16674;DHT22;8450;52.654;10.326;2023-05-23T13:16:04;13.70;99.90
16674;DHT22;8450;52.654;10.326;2023-05-23T13:18:30;13.70;99.90
16674;DHT22;8450;52.654;10.326;2023-05-23T13:20:55;13.80;99.90
16674;DHT22;8450;52.654;10.326;2023-05-23T13:23:21;13.70;99.90
16674;DHT22;8450;52.654;10.326;2023-05-23T13:25:47;13.60;99.90
16674;DHT22;8450;52.654;10.326;2023-05-23T13:28:14;13.50;99.90
16674;DHT22;8450;52.654;10.326;2023-05-23T13:30:40;13.70;99.90
16674;DHT22;8450;52.654;10.326;2023-05-23T13:33:05;13.70;99.90
16674;DHT22;8450;52.654;10.326;2023-05-23T13:35:31;13.50;99.90
16674;DHT22;8450;52.654;10.326;2023-05-23T13:37:57;13.40;99.90
16674;DHT22;8450;52.654;10.326;2023-05-23T13:40:22;13.50;99.90
16674;DHT22;8450;52.654;10.326;2023-05-23T13:42:49;13.50;99.90
16674;DHT22;8450;52.654;10.326;2023-05-23T13:45:15;13.30;99.90
16674;DHT22;8450;52.654;10.326;2023-05-23T13:47:43;13.40;99.90
16674;DHT22;8450;52.654;10.326;2023-05-23T13:50:09;13.60;99.90
16674;DHT22;8450;52.654;10.326;2023-05-23T13:52:35;14.00;99.90
16674;DHT22;8450;52.654;10.326;2023-05-23T13:55:03;14.40;99.90
16674;DHT22;8450;52.654;10.326;2023-05-23T13:57:29;14.70;99.90
16674;DHT22;8450;52.654;10.326;2023-05-23T13:59:54;14.80;99.90
16674;DHT22;8450;52.654;10.326;2023-05-23T14:02:20;14.50;99.90
16674;DHT22;8450;52.654;10.326;2023-05-23T14:07:23;14.70;99.90
16674;DHT22;8450;52.654;10.326;2023-05-23T14:09:48;14.70;99.90
16674;DHT22;8450;52.654;10.326;2023-05-23T14:12:14;14.70;99.90
16674;DHT22;8450;52.654;10.326;2023-05-23T14:14:39;14.50;99.90
16674;DHT22;8450;52.654;10.326;2023-05-23T14:17:05;14.60;99.90
16674;DHT22;8450;52.654;10.326;2023-05-23T14:19:30;14.70;99.90
16674;DHT22;8450;52.654;10.326;2023-05-23T14:21:56;14.80;99.90
16674;DHT22;8450;52.654;10.326;2023-05-23T14:24:22;14.80;99.90
16674;DHT22;8450;52.654;10.326;2023-05-23T14:26:47;15.10;99.90
16674;DHT22;8450;52.654;10.326;2023-05-23T14:29:14;15.10;99.90
16674;DHT22;8450;52.654;10.326;2023-05-23T14:31:40;14.90;99.90
16674;DHT22;8450;52.654;10.326;2023-05-23T14:34:06;14.70;99.90
16674;DHT22;8450;52.654;10.326;2023-05-23T14:36:31;14.50;99.90
16674;DHT22;8450;52.654;10.326;2023-05-23T14:38:57;15.00;99.90
16674;DHT22;8450;52.654;10.326;2023-05-23T14:41:23;15.70;99.90
16674;DHT22;8450;52.654;10.326;2023-05-23T14:43:49;15.70;99.90
16674;DHT22;8450;52.654;10.326;2023-05-23T14:46:16;16.00;99.90
16674;DHT22;8450;52.654;10.326;2023-05-23T14:48:42;15.90;99.90
16674;DHT22;8450;52.654;10.326;2023-05-23T14:51:08;15.60;99.90
16674;DHT22;8450;52.654;10.326;2023-05-23T14:53:34;15.70;99.90
16674;DHT22;8450;52.654;10.326;2023-05-23T14:56:00;16.20;99.90
16674;DHT22;8450;52.654;10.326;2023-05-23T14:58:26;16.10;99.90
16674;DHT22;8450;52.654;10.326;2023-05-23T15:00:51;16.00;99.90
16674;DHT22;8450;52.654;10.326;2023-05-23T15:03:17;15.30;99.90
16674;DHT22;8450;52.654;10.326;2023-05-23T15:05:43;15.50;99.90
16674;DHT22;8450;52.654;10.326;2023-05-23T15:08:08;15.10;99.90
16674;DHT22;8450;52.654;10.326;2023-05-23T15:10:34;15.60;99.90
16674;DHT22;8450;52.654;10.326;2023-05-23T15:13:00;15.50;99.90
16674;DHT22;8450;52.654;10.326;2023-05-23T15:15:27;16.00;99.90
16674;DHT22;8450;52.654;10.326;2023-05-23T15:18:01;15.60;99.90
16674;DHT22;8450;52.654;10.326;2023-05-23T15:20:31;15.60;99.90
16674;DHT22;8450;52.654;10.326;2023-05-23T15:22:57;15.50;99.90
16674;DHT22;8450;52.654;10.326;2023-05-23T15:25:22;15.60;99.90
16674;DHT22;8450;52.654;10.326;2023-05-23T15:27:51;15.60;99.90
16674;DHT22;8450;52.654;10.326;2023-05-23T15:30:18;15.20;99.90
16674;DHT22;8450;52.654;10.326;2023-05-23T15:33:08;15.50;99.90
16674;DHT22;8450;52.654;10.326;2023-05-23T15:35:34;15.70;99.90
16674;DHT22;8450;52.654;10.326;2023-05-23T15:37:59;15.50;99.90
16674;DHT22;8450;52.654;10.326;2023-05-23T15:40:25;15.40;99.90
16674;DHT22;8450;52.654;10.326;2023-05-23T15:42:51;15.10;99.90
16674;DHT22;8450;52.654;10.326;2023-05-23T15:45:16;15.20;99.90
16674;DHT22;8450;52.654;10.326;2023-05-23T15:47:42;15.20;99.90
16674;DHT22;8450;52.654;10.326;2023-05-23T15:50:08;15.50;99.90
16674;DHT22;8450;52.654;10.326;2023-05-23T15:52:33;15.50;99.90
16674;DHT22;8450;52.654;10.326;2023-05-23T15:54:59;15.50;99.90
16674;DHT22;8450;52.654;10.326;2023-05-23T16:01:56;15.20;99.90
16674;DHT22;8450;52.654;10.326;2023-05-23T16:04:22;14.70;99.90
16674;DHT22;8450;52.654;10.326;2023-05-23T16:06:48;14.70;99.90
16674;DHT22;8450;52.654;10.326;2023-05-23T16:09:15;14.30;99.90
16674;DHT22;8450;52.654;10.326;2023-05-23T16:11:41;14.40;99.90
16674;DHT22;8450;52.654;10.326;2023-05-23T16:14:07;14.80;99.90
16674;DHT22;8450;52.654;10.326;2023-05-23T16:16:33;15.00;99.90
16674;DHT22;8450;52.654;10.326;2023-05-23T16:18:59;15.10;99.90
16674;DHT22;8450;52.654;10.326;2023-05-23T16:21:24;14.80;99.90
16674;DHT22;8450;52.654;10.326;2023-05-23T16:23:50;14.50;99.90
16674;DHT22;8450;52.654;10.326;2023-05-23T16:26:16;14.00;99.90
16674;DHT22;8450;52.654;10.326;2023-05-23T16:28:43;14.10;99.90
16674;DHT22;8450;52.654;10.326;2023-05-23T16:31:13;14.00;99.90
16674;DHT22;8450;52.654;10.326;2023-05-23T16:33:39;14.00;99.90
16674;DHT22;8450;52.654;10.326;2023-05-23T16:36:04;14.10;99.90
16674;DHT22;8450;52.654;10.326;2023-05-23T16:38:30;14.00;99.90
16674;DHT22;8450;52.654;10.326;2023-05-23T16:40:56;14.10;99.90
16674;DHT22;8450;52.654;10.326;2023-05-23T16:43:22;14.00;99.90
16674;DHT22;8450;52.654;10.326;2023-05-23T16:45:47;13.90;99.90
16674;DHT22;8450;52.654;10.326;2023-05-23T16:48:13;14.10;99.90
16674;DHT22;8450;52.654;10.326;2023-05-23T16:50:38;13.80;99.90
16674;DHT22;8450;52.654;10.326;2023-05-23T16:53:04;13.80;99.90
16674;DHT22;8450;52.654;10.326;2023-05-23T16:55:29;13.60;99.90
16674;DHT22;8450;52.654;10.326;2023-05-23T16:57:55;13.60;99.90
16674;DHT22;8450;52.654;10.326;2023-05-23T17:00:21;13.40;99.90
16674;DHT22;8450;52.654;10.326;2023-05-23T17:02:46;13.20;99.90
16674;DHT22;8450;52.654;10.326;2023-05-23T17:05:13;13.60;99.90
16674;DHT22;8450;52.654;10.326;2023-05-23T17:07:39;13.50;99.90
16674;DHT22;8450;52.654;10.326;2023-05-23T17:10:05;13.60;99.90
16674;DHT22;8450;52.654;10.326;2023-05-23T17:12:31;13.60;99.90
16674;DHT22;8450;52.654;10.326;2023-05-23T17:14:56;13.40;99.90
16674;DHT22;8450;52.654;10.326;2023-05-23T17:17:22;13.30;99.90
16674;DHT22;8450;52.654;10.326;2023-05-23T17:19:47;13.40;99.90
16674;DHT22;8450;52.654;10.326;2023-05-23T17:22:13;13.40;99.90
16674;DHT22;8450;52.654;10.326;2023-05-23T17:24:39;13.10;99.90
16674;DHT22;8450;52.654;10.326;2023-05-23T17:27:04;13.00;99.90
16674;DHT22;8450;52.654;10.326;2023-05-23T17:29:30;13.00;99.90
16674;DHT22;8450;52.654;10.326;2023-05-23T17:31:56;13.10;99.90
16674;DHT22;8450;52.654;10.326;2023-05-23T17:34:24;13.10;99.90
16674;DHT22;8450;52.654;10.326;2023-05-23T17:36:50;12.90;99.90
16674;DHT22;8450;52.654;10.326;2023-05-23T17:39:17;13.10;99.90
16674;DHT22;8450;52.654;10.326;2023-05-23T17:41:43;13.10;99.90
16674;DHT22;8450;52.654;10.326;2023-05-23T17:44:12;13.00;99.90
16674;DHT22;8450;52.654;10.326;2023-05-23T17:46:38;13.10;99.90
16674;DHT22;8450;52.654;10.326;2023-05-23T17:49:04;13.10;99.90
16674;DHT22;8450;52.654;10.326;2023-05-23T17:51:30;12.90;99.90
16674;DHT22;8450;52.654;10.326;2023-05-23T17:53:57;12.90;99.90
16674;DHT22;8450;52.654;10.326;2023-05-23T17:56:23;12.80;99.90
16674;DHT22;8450;52.654;10.326;2023-05-23T17:58:50;12.90;99.90
16674;DHT22;8450;52.654;10.326;2023-05-23T18:02:20;12.90;99.90
16674;DHT22;8450;52.654;10.326;2023-05-23T18:04:45;12.50;99.90
16674;DHT22;8450;52.654;10.326;2023-05-23T18:07:11;12.30;99.90
16674;DHT22;8450;52.654;10.326;2023-05-23T18:09:37;12.30;99.90
16674;DHT22;8450;52.654;10.326;2023-05-23T18:12:03;12.40;99.90
16674;DHT22;8450;52.654;10.326;2023-05-23T18:14:29;12.30;99.90
16674;DHT22;8450;52.654;10.326;2023-05-23T18:16:54;12.20;99.90
16674;DHT22;8450;52.654;10.326;2023-05-23T18:19:22;12.10;99.90
